Time;durP1;ratioP1;P1;durP2;ratioP2;P2;SDS_P1;SDS_P2;PMS_P1;PMS_P2;Temp;Humidity;BMP_temperature;BMP_pressure;BME280_temperature;BME280_humidity;BME280_pressure;Samples;Min_cycle;Max_cycle;Signal;HPM_P1;HPM_P2
2022/09/27 00:00:28;;;;;;;7.80;1.70;;;10.30;99.90;;;;;;4982838;28;20053;-60
2022/09/27 00:02:54;;;;;;;5.03;1.38;;;10.20;99.90;;;;;;4983576;28;20065;-61
2022/09/27 00:05:19;;;;;;;8.18;1.30;;;10.20;99.90;;;;;;4986160;28;20050;-61
2022/09/27 00:07:45;;;;;;;4.68;1.00;;;10.30;99.90;;;;;;4991714;28;20042;-61
2022/09/27 00:10:11;;;;;;;4.97;0.98;;;10.20;99.90;;;;;;4982772;28;20100;-59
2022/09/27 00:12:38;;;;;;;5.05;1.02;;;10.20;99.90;;;;;;4983073;28;20053;-62
2022/09/27 00:15:05;;;;;;;7.90;1.10;;;10.10;99.90;;;;;;4981601;28;20073;-61
2022/09/27 00:17:31;;;;;;;4.68;0.73;;;10.20;99.90;;;;;;4984056;28;20046;-60
2022/09/27 00:20:00;;;;;;;4.43;0.77;;;10.10;99.90;;;;;;4983660;28;20511;-62
2022/09/27 00:22:27;;;;;;;6.40;0.88;;;10.10;99.90;;;;;;4983133;28;20054;-60
2022/09/27 00:24:53;;;;;;;6.57;1.00;;;10.10;99.90;;;;;;4983301;28;20133;-60
2022/09/27 00:27:19;;;;;;;6.75;1.33;;;10.00;99.90;;;;;;4981775;28;20058;-61
2022/09/27 00:29:46;;;;;;;3.95;0.68;;;10.00;99.90;;;;;;4983566;28;20050;-61
2022/09/27 00:32:13;;;;;;;5.85;0.90;;;10.10;99.90;;;;;;4987054;28;20038;-61
2022/09/27 00:34:39;;;;;;;6.20;1.02;;;10.10;99.90;;;;;;4986691;28;20175;-61
2022/09/27 00:37:06;;;;;;;5.30;0.93;;;10.10;99.90;;;;;;4987279;28;20044;-62
2022/09/27 00:39:31;;;;;;;6.13;0.80;;;10.10;99.90;;;;;;4987497;28;20081;-61
2022/09/27 00:41:57;;;;;;;4.63;0.85;;;10.10;99.90;;;;;;4987107;28;20074;-61
2022/09/27 00:44:27;;;;;;;5.55;0.80;;;10.10;99.90;;;;;;4986298;28;20072;-62
2022/09/27 00:47:18;;;;;;;4.85;0.90;;;10.10;99.90;;;;;;4987363;28;20129;-60
2022/09/27 00:50:22;;;;;;;3.40;0.90;;;10.00;99.90;;;;;;4987763;28;20049;-62
2022/09/27 00:53:13;;;;;;;4.03;0.90;;;10.10;99.90;;;;;;4968771;28;20050;-60
2022/09/27 00:56:00;;;;;;;9.35;1.10;;;10.00;99.90;;;;;;4987863;28;20129;-62
2022/09/27 00:58:29;;;;;;;8.13;1.13;;;10.00;99.90;;;;;;4986636;28;20449;-61
2022/09/27 01:00:59;;;;;;;6.00;1.13;;;10.00;99.90;;;;;;4986994;28;20697;-60
2022/09/27 01:03:38;;;;;;;6.28;0.73;;;10.00;99.90;;;;;;5001477;28;20054;-61
2022/09/27 01:06:07;;;;;;;3.20;0.77;;;10.00;99.90;;;;;;4992874;28;20042;-61
2022/09/27 01:08:32;;;;;;;6.35;1.10;;;10.00;99.90;;;;;;5001774;28;20419;-61
2022/09/27 01:11:21;;;;;;;5.82;0.82;;;9.90;99.90;;;;;;4987193;28;20117;-62
2022/09/27 01:14:24;;;;;;;7.43;0.95;;;9.90;99.90;;;;;;4985325;28;20057;-62
2022/09/27 01:17:37;;;;;;;5.53;0.85;;;9.90;99.90;;;;;;4986587;28;20453;-61
2022/09/27 01:20:42;;;;;;;4.18;0.90;;;9.90;99.90;;;;;;4981430;28;20065;-61
2022/09/27 01:23:28;;;;;;;4.38;1.00;;;9.90;99.90;;;;;;4985318;28;20192;-62
2022/09/27 01:26:06;;;;;;;5.68;1.08;;;9.90;99.90;;;;;;5001518;28;20042;-61
2022/09/27 01:28:57;;;;;;;4.88;0.80;;;9.90;99.90;;;;;;4986246;28;20046;-61
2022/09/27 01:31:33;;;;;;;6.03;0.90;;;9.80;99.90;;;;;;4985305;28;20655;-62
2022/09/27 01:34:30;;;;;;;7.82;1.15;;;9.90;99.90;;;;;;4985639;28;20401;-61
2022/09/27 01:37:14;;;;;;;4.78;0.75;;;9.90;99.90;;;;;;4986567;28;20049;-59
2022/09/27 01:40:00;;;;;;;6.18;0.85;;;9.80;99.90;;;;;;4986025;28;20402;-62
2022/09/27 01:42:40;;;;;;;4.50;1.00;;;9.80;99.90;;;;;;4984141;28;20167;-62
2022/09/27 01:45:20;;;;;;;5.95;0.90;;;9.80;99.90;;;;;;4986460;28;20042;-62
2022/09/27 01:47:53;;;;;;;6.00;1.23;;;9.80;99.90;;;;;;4985473;28;20034;-63
2022/09/27 01:50:25;;;;;;;4.93;0.88;;;9.70;99.90;;;;;;4986243;28;20050;-62
2022/09/27 01:52:59;;;;;;;5.93;1.00;;;9.70;99.90;;;;;;4985732;28;20712;-61
2022/09/27 01:55:30;;;;;;;4.00;0.80;;;9.70;99.90;;;;;;4986223;28;20105;-61
2022/09/27 01:58:09;;;;;;;3.90;0.90;;;9.60;99.90;;;;;;4985085;28;20044;-60
2022/09/27 02:00:36;;;;;;;5.10;0.77;;;9.60;99.90;;;;;;4985755;28;20285;-61
2022/09/27 02:03:11;;;;;;;7.07;1.35;;;9.70;99.90;;;;;;4968488;28;20042;-61
2022/09/27 02:05:51;;;;;;;4.53;0.80;;;9.70;99.90;;;;;;4988374;28;20046;-62
2022/09/27 02:08:37;;;;;;;6.82;1.17;;;9.60;99.90;;;;;;4998165;28;20050;-61
2022/09/27 02:11:08;;;;;;;5.30;1.17;;;9.60;99.90;;;;;;5002704;28;20111;-61
2022/09/27 02:14:02;;;;;;;5.15;1.15;;;9.50;99.90;;;;;;5004172;28;20045;-62
2022/09/27 02:17:01;;;;;;;7.07;1.13;;;9.60;99.90;;;;;;5004021;28;20041;-60
2022/09/27 02:19:36;;;;;;;7.00;1.27;;;9.50;99.90;;;;;;4993469;28;20054;-61
2022/09/27 02:22:22;;;;;;;9.18;1.33;;;9.60;99.90;;;;;;5004559;28;20096;-61
2022/09/27 02:25:04;;;;;;;6.90;1.13;;;9.60;99.90;;;;;;5004324;28;20041;-61
2022/09/27 02:27:53;;;;;;;6.70;1.10;;;9.60;99.90;;;;;;5003627;28;20073;-62
2022/09/27 02:30:19;;;;;;;6.38;1.38;;;9.50;99.90;;;;;;5003416;28;20046;-62
2022/09/27 02:32:44;;;;;;;7.25;1.20;;;9.50;99.90;;;;;;5004480;28;20050;-61
2022/09/27 02:35:18;;;;;;;3.63;0.90;;;9.60;99.90;;;;;;5005135;28;20142;-62
2022/09/27 02:37:44;;;;;;;7.93;1.30;;;9.60;99.90;;;;;;5004502;28;20053;-61
2022/09/27 02:40:10;;;;;;;5.25;1.10;;;9.50;99.90;;;;;;5005036;28;20042;-61
2022/09/27 02:42:36;;;;;;;4.85;1.10;;;9.50;99.90;;;;;;5004123;28;20444;-61
2022/09/27 02:45:05;;;;;;;4.47;1.25;;;9.40;99.90;;;;;;5004420;28;20219;-60
2022/09/27 02:47:58;;;;;;;9.05;1.38;;;9.50;99.90;;;;;;5004803;28;20571;-61
2022/09/27 02:50:48;;;;;;;5.50;1.25;;;9.50;99.90;;;;;;5004424;28;20046;-61
2022/09/27 02:53:30;;;;;;;10.57;1.77;;;9.60;99.90;;;;;;5004713;28;20049;-61
2022/09/27 02:56:32;;;;;;;8.10;1.75;;;9.50;99.90;;;;;;5002469;28;20038;-60
2022/09/27 02:59:12;;;;;;;5.65;1.40;;;9.60;99.90;;;;;;5002955;28;20046;-61
2022/09/27 03:01:50;;;;;;;5.40;0.90;;;9.40;99.90;;;;;;5004536;28;20057;-61
2022/09/27 03:04:38;;;;;;;4.97;1.20;;;9.50;99.90;;;;;;5004009;28;20045;-60
2022/09/27 03:07:05;;;;;;;4.32;1.17;;;9.50;99.90;;;;;;4996178;28;20113;-61
2022/09/27 03:09:46;;;;;;;6.03;0.90;;;9.50;99.90;;;;;;4984445;28;20050;-62
2022/09/27 03:12:13;;;;;;;5.55;0.82;;;9.50;99.90;;;;;;4983371;28;20042;-61
2022/09/27 03:14:39;;;;;;;4.32;1.25;;;9.50;99.90;;;;;;4983763;28;20136;-60
2022/09/27 03:17:06;;;;;;;3.97;0.80;;;9.60;99.90;;;;;;4984115;28;20096;-60
2022/09/27 03:19:31;;;;;;;6.47;0.90;;;9.50;99.90;;;;;;4984345;28;20046;-62
2022/09/27 03:21:57;;;;;;;3.45;0.77;;;9.40;99.90;;;;;;4984134;28;20053;-62
2022/09/27 03:24:23;;;;;;;8.80;1.27;;;9.50;99.90;;;;;;4983386;28;20046;-60
2022/09/27 03:26:49;;;;;;;5.75;1.15;;;9.40;99.90;;;;;;4983799;28;20050;-62
2022/09/27 03:29:15;;;;;;;3.28;0.60;;;9.40;99.90;;;;;;4984286;28;20042;-62
2022/09/27 03:31:41;;;;;;;4.22;1.00;;;9.40;99.90;;;;;;4984040;28;20051;-61
2022/09/27 03:34:07;;;;;;;5.57;0.75;;;9.40;99.90;;;;;;4984296;28;20490;-61
2022/09/27 03:36:32;;;;;;;3.40;0.80;;;9.40;99.90;;;;;;4984073;28;20079;-61
2022/09/27 03:38:58;;;;;;;6.43;0.90;;;9.30;99.90;;;;;;4983616;28;20078;-61
2022/09/27 03:41:24;;;;;;;4.82;1.08;;;9.20;99.90;;;;;;4983255;28;20043;-60
2022/09/27 03:43:49;;;;;;;5.60;0.80;;;9.20;99.90;;;;;;4983337;28;20174;-61
2022/09/27 03:46:15;;;;;;;8.25;1.20;;;9.20;99.90;;;;;;4983746;28;20038;-61
2022/09/27 03:48:41;;;;;;;5.20;0.90;;;9.20;99.90;;;;;;4983387;28;20054;-61
2022/09/27 03:51:07;;;;;;;6.15;1.00;;;9.20;99.90;;;;;;4983783;28;20073;-62
2022/09/27 03:53:33;;;;;;;9.68;1.50;;;9.20;99.90;;;;;;4984376;28;20047;-61
2022/09/27 03:55:59;;;;;;;6.18;1.10;;;9.20;99.90;;;;;;4983342;28;20088;-59
2022/09/27 03:58:25;;;;;;;8.40;1.30;;;9.20;99.90;;;;;;4982121;28;20097;-60
2022/09/27 04:00:50;;;;;;;6.45;1.13;;;9.20;99.90;;;;;;4983896;28;20470;-62
2022/09/27 04:03:18;;;;;;;4.25;1.08;;;9.20;99.90;;;;;;4983966;28;20096;-62
2022/09/27 04:05:44;;;;;;;5.55;1.13;;;9.30;99.90;;;;;;4985285;28;20081;-60
2022/09/27 04:08:10;;;;;;;5.00;1.17;;;9.20;99.90;;;;;;4994422;28;20057;-58
2022/09/27 04:10:36;;;;;;;9.10;1.40;;;9.20;99.90;;;;;;4987505;28;20050;-61
2022/09/27 04:13:03;;;;;;;7.80;1.10;;;9.20;99.90;;;;;;4986363;28;20089;-58
2022/09/27 04:15:28;;;;;;;3.80;1.00;;;9.10;99.90;;;;;;4987793;28;20112;-61
2022/09/27 04:17:54;;;;;;;8.25;1.50;;;9.20;99.90;;;;;;4987896;28;20517;-61
2022/09/27 04:20:20;;;;;;;5.57;1.02;;;9.10;99.90;;;;;;4987153;28;20508;-62
2022/09/27 04:22:45;;;;;;;7.85;1.30;;;9.20;99.90;;;;;;4987343;28;20496;-60
2022/09/27 04:25:11;;;;;;;6.97;0.85;;;9.20;99.90;;;;;;4987638;28;20046;-61
2022/09/27 04:27:38;;;;;;;6.18;1.02;;;9.20;99.90;;;;;;4986397;28;20557;-61
2022/09/27 04:30:05;;;;;;;3.45;1.10;;;9.20;99.90;;;;;;4986485;28;20057;-61
2022/09/27 04:32:31;;;;;;;5.07;1.17;;;9.20;99.90;;;;;;4987168;28;20058;-59
2022/09/27 04:37:42;;;;;;;3.13;0.88;;;9.30;99.90;;;;;;4986949;28;20093;-61
2022/09/27 04:40:08;;;;;;;4.78;0.75;;;9.20;99.90;;;;;;4987431;28;20101;-61
2022/09/27 04:42:34;;;;;;;3.75;0.70;;;9.10;99.90;;;;;;4986674;28;20038;-61
2022/09/27 04:44:59;;;;;;;5.32;0.90;;;9.10;99.90;;;;;;4986569;28;20065;-62
2022/09/27 04:47:25;;;;;;;7.13;1.00;;;9.10;99.90;;;;;;4986714;28;20058;-61
2022/09/27 04:49:51;;;;;;;3.55;0.98;;;9.10;99.90;;;;;;4986753;28;20487;-60
2022/09/27 04:52:16;;;;;;;5.25;0.90;;;9.10;99.90;;;;;;4985098;28;20056;-62
2022/09/27 04:54:42;;;;;;;4.38;0.77;;;9.10;99.90;;;;;;4986911;28;20050;-62
2022/09/27 04:57:08;;;;;;;4.35;0.90;;;9.10;99.90;;;;;;4986267;28;20129;-60
2022/09/27 04:59:33;;;;;;;5.38;1.08;;;9.10;99.90;;;;;;4987392;28;20042;-61
2022/09/27 05:01:59;;;;;;;6.32;1.00;;;9.10;99.90;;;;;;4986373;28;20169;-59
2022/09/27 05:04:26;;;;;;;7.03;1.10;;;9.10;99.90;;;;;;4986711;28;20081;-59
2022/09/27 05:06:52;;;;;;;3.58;0.80;;;9.10;99.90;;;;;;4997218;28;20408;-60
2022/09/27 05:09:18;;;;;;;6.78;1.15;;;9.20;99.90;;;;;;4986307;28;20085;-62
2022/09/27 05:11:44;;;;;;;8.00;1.13;;;9.20;99.90;;;;;;4985721;28;20053;-62
2022/09/27 05:14:10;;;;;;;6.13;0.90;;;9.10;99.90;;;;;;4985728;28;20233;-59
2022/09/27 05:16:36;;;;;;;5.07;0.85;;;9.20;99.90;;;;;;5001009;28;20061;-60
2022/09/27 05:19:03;;;;;;;6.45;1.00;;;9.20;99.90;;;;;;4985265;28;20046;-61
2022/09/27 05:21:30;;;;;;;6.55;1.08;;;9.10;99.90;;;;;;4986009;28;20042;-61
2022/09/27 05:23:56;;;;;;;7.90;1.10;;;9.20;99.90;;;;;;4986713;28;20055;-60
2022/09/27 05:26:22;;;;;;;5.68;1.10;;;9.10;99.90;;;;;;4985398;28;20042;-61
2022/09/27 05:28:47;;;;;;;8.82;0.90;;;9.10;99.90;;;;;;4986575;28;20049;-62
2022/09/27 05:31:13;;;;;;;7.10;1.20;;;9.10;99.90;;;;;;4985775;28;20034;-61
2022/09/27 05:33:39;;;;;;;4.35;1.02;;;9.20;99.90;;;;;;4985453;28;20507;-61
2022/09/27 05:36:07;;;;;;;5.15;0.85;;;9.00;99.90;;;;;;4985649;28;20038;-61
2022/09/27 05:38:34;;;;;;;4.53;0.93;;;9.20;99.90;;;;;;4985244;28;20035;-61
2022/09/27 05:41:00;;;;;;;5.55;0.77;;;9.10;99.90;;;;;;4984743;28;20051;-61
2022/09/27 05:43:26;;;;;;;5.35;0.93;;;9.20;99.90;;;;;;4985256;28;20137;-60
2022/09/27 05:45:52;;;;;;;6.78;0.98;;;9.10;99.90;;;;;;4986062;28;20050;-62
2022/09/27 05:48:18;;;;;;;3.55;1.05;;;9.20;99.90;;;;;;4986362;28;20042;-61
2022/09/27 05:50:44;;;;;;;5.82;0.77;;;9.20;99.90;;;;;;4985062;28;20050;-61
2022/09/27 05:53:10;;;;;;;5.55;1.25;;;9.20;99.90;;;;;;4986367;28;20046;-59
2022/09/27 05:55:36;;;;;;;3.20;0.70;;;9.20;99.90;;;;;;4985911;28;20136;-61
2022/09/27 05:58:05;;;;;;;4.93;0.77;;;9.20;99.90;;;;;;4983315;28;20045;-59
2022/09/27 06:00:32;;;;;;;4.13;0.70;;;9.20;99.90;;;;;;4984951;28;20049;-60
2022/09/27 06:03:02;;;;;;;5.10;0.90;;;9.10;99.90;;;;;;5000166;28;20075;-61
2022/09/27 06:05:30;;;;;;;4.93;0.80;;;9.00;99.90;;;;;;4986983;28;20054;-59
2022/09/27 06:08:00;;;;;;;3.47;0.88;;;9.10;99.90;;;;;;4993613;28;20057;-62
2022/09/27 06:10:27;;;;;;;3.45;0.90;;;9.10;99.90;;;;;;4983217;28;20054;-62
2022/09/27 06:12:57;;;;;;;3.55;0.55;;;9.20;99.90;;;;;;4983441;28;20042;-62
2022/09/27 06:15:23;;;;;;;3.75;0.60;;;9.10;99.90;;;;;;4984101;28;20065;-61
2022/09/27 06:17:48;;;;;;;3.75;0.70;;;9.20;99.90;;;;;;4984968;28;20050;-59
2022/09/27 06:20:15;;;;;;;4.18;0.68;;;9.20;99.90;;;;;;4984084;28;20034;-61
2022/09/27 06:22:41;;;;;;;6.25;0.90;;;9.20;99.90;;;;;;4985222;28;20042;-61
2022/09/27 06:25:08;;;;;;;2.95;0.60;;;9.30;99.90;;;;;;4984889;28;20065;-61
2022/09/27 06:27:34;;;;;;;3.80;0.63;;;9.30;99.90;;;;;;4984205;28;20121;-60
2022/09/27 06:29:59;;;;;;;2.88;0.60;;;9.30;99.90;;;;;;4984425;28;20125;-59
2022/09/27 06:32:25;;;;;;;2.25;0.70;;;9.30;99.90;;;;;;4984849;28;20134;-62
2022/09/27 06:34:51;;;;;;;2.60;0.52;;;9.30;99.90;;;;;;4985251;28;20058;-61
2022/09/27 06:37:16;;;;;;;3.85;0.90;;;9.30;99.90;;;;;;4984325;28;20038;-61
2022/09/27 06:39:42;;;;;;;5.50;0.77;;;9.30;99.90;;;;;;4984973;28;20042;-62
2022/09/27 06:42:09;;;;;;;6.43;0.82;;;9.30;99.90;;;;;;4984130;28;20111;-60
2022/09/27 06:44:35;;;;;;;5.80;1.20;;;9.40;99.90;;;;;;4982705;28;20049;-61
2022/09/27 06:47:01;;;;;;;3.15;0.63;;;9.40;99.90;;;;;;4985517;28;20405;-61
2022/09/27 06:49:27;;;;;;;4.43;0.90;;;9.50;99.90;;;;;;4984458;28;20046;-62
2022/09/27 06:51:54;;;;;;;2.55;0.70;;;9.50;99.90;;;;;;4985239;28;20192;-60
2022/09/27 06:54:19;;;;;;;6.93;0.88;;;9.50;99.90;;;;;;4984688;28;20072;-61
2022/09/27 06:56:48;;;;;;;5.18;1.00;;;9.50;99.90;;;;;;4984521;28;20444;-60
2022/09/27 07:01:59;;;;;;;3.97;0.70;;;9.60;99.90;;;;;;4984653;28;20047;-59
2022/09/27 07:04:25;;;;;;;3.28;0.82;;;9.50;99.90;;;;;;4985397;28;20316;-60
2022/09/27 07:06:51;;;;;;;5.68;0.90;;;9.50;99.90;;;;;;4995356;28;20473;-59
2022/09/27 07:09:17;;;;;;;2.97;0.90;;;9.50;99.90;;;;;;4985036;28;20051;-61
2022/09/27 07:11:43;;;;;;;4.35;1.25;;;9.50;99.90;;;;;;4983735;28;20145;-60
2022/09/27 07:14:09;;;;;;;4.32;1.10;;;9.50;99.90;;;;;;4984325;28;20054;-59
2022/09/27 07:16:35;;;;;;;4.90;1.13;;;9.60;99.90;;;;;;4984118;28;20046;-59
2022/09/27 07:19:01;;;;;;;4.88;1.90;;;9.50;99.90;;;;;;4983928;28;20099;-61
2022/09/27 07:21:27;;;;;;;11.40;7.13;;;9.60;99.90;;;;;;4982759;28;20049;-61
2022/09/27 07:23:52;;;;;;;8.65;2.80;;;9.50;99.90;;;;;;4984118;28;20046;-61
2022/09/27 07:26:18;;;;;;;4.43;1.30;;;9.60;99.90;;;;;;4983502;28;20179;-61
2022/09/27 07:28:44;;;;;;;8.23;1.80;;;9.50;99.90;;;;;;4984546;28;20069;-60
2022/09/27 07:31:10;;;;;;;5.80;1.50;;;9.50;99.90;;;;;;4984411;28;20397;-61
2022/09/27 07:33:38;;;;;;;5.45;1.85;;;9.60;99.90;;;;;;4983952;28;20050;-61
2022/09/27 07:36:09;;;;;;;9.88;4.50;;;9.70;99.90;;;;;;4984110;28;20065;-60
2022/09/27 07:38:35;;;;;;;7.05;2.97;;;9.60;99.90;;;;;;4983980;28;20394;-61
2022/09/27 07:41:14;;;;;;;5.85;1.02;;;9.70;99.90;;;;;;4985509;28;20125;-60
2022/09/27 07:43:40;;;;;;;4.50;1.33;;;9.80;99.90;;;;;;4990585;28;20057;-61
2022/09/27 07:46:06;;;;;;;4.68;1.60;;;9.80;99.90;;;;;;4990128;28;20046;-61
2022/09/27 07:48:33;;;;;;;5.50;2.42;;;9.80;99.90;;;;;;4990557;28;20050;-61
2022/09/27 07:50:59;;;;;;;6.18;2.00;;;10.00;99.90;;;;;;4990570;28;20080;-62
2022/09/27 07:53:24;;;;;;;4.78;1.05;;;9.90;99.90;;;;;;4990681;28;20501;-61
2022/09/27 07:55:52;;;;;;;4.60;1.20;;;9.80;99.90;;;;;;4988088;28;20043;-59
2022/09/27 07:58:18;;;;;;;6.50;1.10;;;9.90;99.90;;;;;;4989766;28;20058;-61
2022/09/27 08:00:44;;;;;;;6.70;3.35;;;10.00;99.90;;;;;;4990439;28;20038;-62
2022/09/27 08:03:15;;;;;;;5.97;2.45;;;9.90;99.90;;;;;;4989849;28;20039;-61
2022/09/27 08:05:46;;;;;;;5.38;2.05;;;10.00;99.90;;;;;;4992901;28;20065;-61
2022/09/27 08:08:12;;;;;;;4.07;1.13;;;9.90;99.90;;;;;;4997986;28;20125;-61
2022/09/27 08:10:42;;;;;;;7.07;1.65;;;10.00;99.90;;;;;;4990069;28;20073;-61
2022/09/27 08:13:09;;;;;;;2.97;0.73;;;10.00;99.90;;;;;;4989517;28;20046;-61
2022/09/27 08:15:37;;;;;;;3.47;1.00;;;10.10;99.90;;;;;;4990190;28;20129;-60
2022/09/27 08:18:03;;;;;;;5.57;1.90;;;10.20;99.90;;;;;;4990079;28;20096;-61
2022/09/27 08:20:28;;;;;;;6.18;2.20;;;10.20;99.90;;;;;;4990402;28;20042;-61
2022/09/27 08:22:54;;;;;;;7.50;2.38;;;10.20;99.90;;;;;;4990226;28;20093;-59
2022/09/27 08:25:23;;;;;;;9.57;3.78;;;10.20;99.90;;;;;;4989907;28;20050;-59
2022/09/27 08:27:56;;;;;;;4.35;1.80;;;10.20;99.90;;;;;;4989770;28;20092;-61
2022/09/27 08:30:22;;;;;;;5.00;1.35;;;10.20;99.90;;;;;;4990384;28;20057;-60
2022/09/27 08:32:48;;;;;;;3.63;1.05;;;10.40;99.90;;;;;;4989582;28;20046;-61
2022/09/27 08:35:14;;;;;;;7.45;1.52;;;10.50;99.90;;;;;;4989722;28;20155;-60
2022/09/27 08:37:40;;;;;;;7.97;3.85;;;10.50;99.90;;;;;;4988778;28;20497;-60
2022/09/27 08:40:06;;;;;;;6.03;3.10;;;10.60;99.90;;;;;;4989884;28;20185;-60
2022/09/27 08:42:49;;;;;;;5.28;1.77;;;10.60;99.90;;;;;;4988886;28;20046;-61
2022/09/27 08:45:28;;;;;;;3.85;1.13;;;10.80;99.90;;;;;;4990130;28;20058;-59
2022/09/27 08:47:59;;;;;;;5.75;1.60;;;10.80;99.90;;;;;;4988913;28;20104;-61
2022/09/27 08:50:36;;;;;;;4.97;1.08;;;10.90;99.90;;;;;;4990165;28;20069;-61
2022/09/27 08:53:10;;;;;;;6.57;1.48;;;10.70;99.90;;;;;;4987635;28;20047;-58
2022/09/27 08:55:40;;;;;;;4.13;1.38;;;10.70;99.90;;;;;;4986738;28;20129;-60
2022/09/27 08:58:42;;;;;;;4.65;2.10;;;10.70;99.90;;;;;;4985896;28;20111;-61
2022/09/27 09:01:14;;;;;;;4.68;0.90;;;11.00;99.90;;;;;;4979820;28;20792;-60
2022/09/27 09:03:55;;;;;;;5.15;1.38;;;11.20;99.90;;;;;;4986310;28;20130;-59
2022/09/27 09:06:27;;;;;;;5.97;1.20;;;11.70;99.90;;;;;;4994946;28;20416;-61
2022/09/27 09:09:21;;;;;;;2.53;0.73;;;11.80;99.90;;;;;;4988695;28;20049;-60
2022/09/27 09:15:12;;;;;;;2.33;0.70;;;11.80;99.90;;;;;;4986535;28;20077;-61
2022/09/27 09:18:08;;;;;;;4.38;0.60;;;12.50;99.90;;;;;;4987126;28;20050;-59
2022/09/27 09:20:48;;;;;;;4.07;0.85;;;12.80;99.90;;;;;;4985748;28;20046;-60
2022/09/27 09:23:45;;;;;;;2.97;1.27;;;13.30;99.90;;;;;;4986431;28;20050;-59
2022/09/27 09:26:39;;;;;;;3.78;1.70;;;13.00;99.90;;;;;;4984207;28;20054;-59
2022/09/27 09:29:12;;;;;;;4.53;1.80;;;13.10;99.90;;;;;;4985786;28;20069;-60
2022/09/27 09:31:59;;;;;;;3.10;0.73;;;13.20;99.90;;;;;;4986386;28;20042;-61
2022/09/27 09:34:42;;;;;;;3.67;1.00;;;13.20;99.90;;;;;;4985544;28;20088;-59
2022/09/27 09:37:24;;;;;;;3.65;0.90;;;12.60;99.90;;;;;;4986323;28;20046;-60
2022/09/27 09:40:03;;;;;;;5.50;1.42;;;12.30;99.90;;;;;;4986150;28;20039;-61
2022/09/27 09:42:41;;;;;;;3.30;0.90;;;12.30;99.90;;;;;;4985782;28;20133;-60
2022/09/27 09:45:40;;;;;;;4.18;1.25;;;12.50;99.90;;;;;;5000570;28;20038;-58
2022/09/27 09:48:26;;;;;;;2.85;0.82;;;13.30;99.90;;;;;;4985109;28;20141;-60
2022/09/27 09:50:56;;;;;;;6.68;2.75;;;13.40;99.90;;;;;;4985718;28;20046;-60
2022/09/27 09:53:38;;;;;;;1.95;0.70;;;13.60;99.90;;;;;;4985384;28;20046;-60
2022/09/27 09:56:17;;;;;;;2.40;0.68;;;14.00;99.90;;;;;;4985687;28;20267;-61
2022/09/27 09:58:56;;;;;;;2.88;0.60;;;14.10;99.90;;;;;;4984313;28;20050;-61
2022/09/27 10:01:44;;;;;;;1.90;0.40;;;13.50;99.90;;;;;;4986430;28;20757;-61
2022/09/27 10:04:31;;;;;;;2.22;0.40;;;13.50;99.90;;;;;;4984988;28;20042;-59
2022/09/27 10:06:59;;;;;;;2.53;0.40;;;13.30;99.90;;;;;;4996505;28;20406;-61
2022/09/27 10:09:27;;;;;;;3.55;0.80;;;13.00;99.90;;;;;;4983894;28;20145;-60
2022/09/27 10:11:53;;;;;;;4.20;0.55;;;13.20;99.90;;;;;;4985096;28;20117;-61
2022/09/27 10:14:21;;;;;;;4.18;0.52;;;13.50;99.90;;;;;;4983754;28;20592;-60
2022/09/27 10:16:53;;;;;;;1.88;0.50;;;13.80;99.90;;;;;;4984429;28;20047;-60
2022/09/27 10:19:31;;;;;;;2.33;0.30;;;14.20;99.90;;;;;;4984147;28;20133;-60
2022/09/27 10:22:02;;;;;;;2.05;0.30;;;14.40;99.90;;;;;;4984789;28;20050;-58
2022/09/27 10:24:28;;;;;;;2.20;0.30;;;13.90;99.90;;;;;;4985094;28;20057;-60
2022/09/27 10:26:59;;;;;;;1.27;0.60;;;13.80;99.90;;;;;;4984851;28;20430;-61
2022/09/27 10:29:29;;;;;;;3.15;0.43;;;13.20;99.90;;;;;;4984519;28;20053;-60
2022/09/27 10:31:55;;;;;;;2.05;0.30;;;13.90;99.90;;;;;;4985120;28;20135;-59
2022/09/27 10:34:37;;;;;;;1.27;0.40;;;14.10;99.90;;;;;;4983920;28;20054;-60
2022/09/27 10:37:11;;;;;;;3.58;0.40;;;13.70;99.90;;;;;;4984763;28;20116;-61
2022/09/27 10:39:40;;;;;;;2.92;0.40;;;13.80;99.90;;;;;;4985215;28;20046;-61
2022/09/27 10:42:35;;;;;;;1.10;0.40;;;13.80;99.90;;;;;;4984421;28;20046;-60
2022/09/27 10:45:26;;;;;;;1.08;0.28;;;13.70;99.90;;;;;;4985104;28;20654;-61
2022/09/27 10:47:51;;;;;;;1.30;0.47;;;13.30;99.90;;;;;;4984915;28;20052;-61
2022/09/27 10:50:22;;;;;;;1.65;0.43;;;13.00;99.90;;;;;;4984876;28;20062;-61
2022/09/27 10:52:58;;;;;;;1.83;0.40;;;12.60;99.90;;;;;;4984151;28;20206;-61
2022/09/27 10:55:26;;;;;;;2.70;0.60;;;12.50;99.90;;;;;;4984941;28;20050;-60
2022/09/27 10:57:54;;;;;;;2.45;0.70;;;12.20;99.90;;;;;;4984705;28;20100;-59
2022/09/27 11:00:35;;;;;;;2.97;1.48;;;12.00;99.90;;;;;;4984298;28;20046;-60
2022/09/27 11:03:03;;;;;;;8.15;4.45;;;11.70;99.90;;;;;;4984790;28;20057;-61
2022/09/27 11:05:38;;;;;;;3.83;1.77;;;11.60;99.90;;;;;;4986687;28;20086;-61
2022/09/27 11:08:32;;;;;;;3.60;1.20;;;11.40;99.90;;;;;;4993861;28;20042;-61
2022/09/27 11:11:03;;;;;;;3.35;2.28;;;11.50;99.90;;;;;;4983498;28;20276;-60
2022/09/27 11:13:31;;;;;;;5.70;3.83;;;11.40;99.90;;;;;;4984615;28;20680;-61
2022/09/27 11:16:09;;;;;;;3.08;1.75;;;11.40;99.90;;;;;;4983853;28;20109;-60
2022/09/27 11:19:03;;;;;;;2.85;1.27;;;11.40;99.90;;;;;;4984636;28;20066;-60
2022/09/27 11:21:58;;;;;;;1.58;0.77;;;11.50;99.90;;;;;;4983528;28;20496;-61
2022/09/27 11:24:35;;;;;;;7.80;4.53;;;11.60;99.90;;;;;;4984505;28;20050;-60
2022/09/27 11:27:29;;;;;;;5.32;2.60;;;11.60;99.90;;;;;;4983479;28;20125;-61
2022/09/27 11:30:09;;;;;;;2.88;1.30;;;11.70;99.90;;;;;;4983208;28;20453;-61
2022/09/27 11:33:00;;;;;;;3.28;1.00;;;11.70;99.90;;;;;;4983965;28;20054;-62
2022/09/27 11:35:26;;;;;;;3.55;1.90;;;11.70;99.90;;;;;;4982371;28;20054;-61
2022/09/27 11:38:16;;;;;;;2.53;0.98;;;11.60;99.90;;;;;;4984142;28;20049;-61
2022/09/27 11:41:12;;;;;;;4.97;2.25;;;11.70;99.90;;;;;;4982824;28;20046;-61
2022/09/27 11:44:02;;;;;;;10.32;6.15;;;11.80;99.90;;;;;;4984080;28;20053;-58
2022/09/27 11:46:36;;;;;;;2.92;1.33;;;12.00;99.90;;;;;;4983449;28;20449;-60
2022/09/27 11:49:21;;;;;;;1.35;0.50;;;12.20;99.90;;;;;;4982861;28;20100;-63
2022/09/27 11:52:29;;;;;;;3.92;1.50;;;12.30;99.90;;;;;;4982489;28;20192;-60
2022/09/27 11:54:57;;;;;;;1.73;0.40;;;12.70;99.90;;;;;;4983517;28;20698;-61
2022/09/27 11:57:34;;;;;;;3.42;1.70;;;13.00;99.90;;;;;;4983010;28;20787;-61
2022/09/27 12:00:41;;;;;;;3.70;1.88;;;13.50;99.90;;;;;;4983756;28;20046;-61
2022/09/27 12:03:16;;;;;;;1.63;0.70;;;13.50;99.90;;;;;;4983490;28;20069;-61
2022/09/27 12:05:54;;;;;;;2.58;0.30;;;13.80;99.90;;;;;;4986167;28;20154;-59
2022/09/27 12:08:43;;;;;;;1.30;0.57;;;13.80;99.90;;;;;;4990225;28;20137;-61
2022/09/27 12:11:29;;;;;;;0.85;0.50;;;14.00;99.90;;;;;;4983722;28;20723;-61
2022/09/27 12:13:57;;;;;;;1.92;0.32;;;14.10;99.90;;;;;;4983747;28;20693;-62
2022/09/27 12:16:24;;;;;;;1.30;0.30;;;14.00;99.90;;;;;;4983744;28;20461;-61
2022/09/27 12:18:52;;;;;;;1.90;0.30;;;13.90;99.90;;;;;;4983223;28;20390;-60
2022/09/27 12:21:19;;;;;;;1.95;0.30;;;13.70;99.90;;;;;;4983649;28;20042;-59
2022/09/27 12:23:48;;;;;;;1.50;0.30;;;14.00;99.90;;;;;;4984334;28;20042;-61
2022/09/27 12:26:36;;;;;;;1.58;0.30;;;14.20;99.90;;;;;;4982547;28;20078;-58
2022/09/27 12:29:26;;;;;;;2.13;0.28;;;13.90;99.90;;;;;;4987292;28;20093;-61
2022/09/27 12:32:13;;;;;;;2.97;0.70;;;13.90;99.90;;;;;;4987801;28;20074;-61
2022/09/27 12:35:01;;;;;;;2.40;0.47;;;14.00;99.90;;;;;;4985678;28;20441;-61
2022/09/27 12:37:36;;;;;;;2.40;0.50;;;13.90;99.90;;;;;;4986096;28;20054;-61
2022/09/27 12:40:27;;;;;;;2.88;0.65;;;13.60;99.90;;;;;;4986771;28;20043;-60
2022/09/27 12:42:53;;;;;;;3.15;0.80;;;13.40;99.90;;;;;;4982188;28;20703;-60
2022/09/27 12:45:49;;;;;;;3.10;0.50;;;13.40;99.90;;;;;;4985567;28;20051;-60
2022/09/27 12:48:33;;;;;;;1.50;0.50;;;13.30;99.90;;;;;;4971421;28;20050;-61
2022/09/27 12:51:11;;;;;;;1.87;1.10;;;13.10;99.90;;;;;;4986854;28;20409;-60
2022/09/27 12:54:04;;;;;;;2.35;0.80;;;13.00;99.90;;;;;;4986714;28;20776;-61
2022/09/27 12:57:05;;;;;;;1.05;0.40;;;12.90;99.90;;;;;;4986743;28;20070;-60
2022/09/27 12:59:39;;;;;;;1.10;0.50;;;12.70;99.90;;;;;;4986973;28;20046;-61
2022/09/27 13:02:19;;;;;;;1.38;0.40;;;12.90;99.90;;;;;;4987042;28;20053;-60
2022/09/27 13:05:21;;;;;;;1.20;0.30;;;12.70;99.90;;;;;;4987365;28;20054;-61
2022/09/27 13:08:07;;;;;;;0.85;0.20;;;12.60;99.90;;;;;;4995599;28;20745;-61
2022/09/27 13:10:52;;;;;;;0.68;0.32;;;12.60;99.90;;;;;;4985716;28;20053;-60
2022/09/27 13:13:21;;;;;;;1.77;0.40;;;12.60;99.90;;;;;;4986644;28;20508;-60
2022/09/27 13:15:48;;;;;;;0.38;0.10;;;12.60;99.90;;;;;;4986906;28;20052;-62
2022/09/27 13:18:54;;;;;;;1.10;0.22;;;12.70;99.90;;;;;;4986562;28;20797;-61
2022/09/27 13:21:39;;;;;;;;;;;13.00;99.90;;;;;;4986544;28;20043;-61
2022/09/27 13:24:30;;;;;;;0.90;0.30;;;13.00;99.90;;;;;;4986648;28;20320;-61
2022/09/27 13:26:57;;;;;;;3.38;0.43;;;13.10;99.90;;;;;;4985884;28;20050;-60
2022/09/27 13:29:32;;;;;;;0.35;0.13;;;12.90;99.90;;;;;;4986588;28;20222;-61
2022/09/27 13:32:01;;;;;;;0.30;0.10;;;12.70;99.90;;;;;;4984669;28;20073;-61
2022/09/27 13:34:48;;;;;;;1.90;0.30;;;12.60;99.90;;;;;;4986464;28;20050;-61